createdAt,value
2022-10-18T00:04:02.217Z,461.64706
2022-10-18T00:09:03.969Z,453.09091
2022-10-18T00:14:05.556Z,444.81301
2022-10-18T00:19:07.155Z,417.84615
2022-10-18T00:24:08.699Z,417.84615
2022-10-18T00:29:10.283Z,436.8
2022-10-18T00:34:11.874Z,444.81301
2022-10-18T00:39:13.479Z,457.33333
2022-10-18T00:44:15.086Z,457.33333
2022-10-18T00:49:16.818Z,461.64706
2022-10-18T00:54:18.434Z,479.65217
2022-10-18T00:59:20.025Z,484.35088
2022-10-18T01:04:21.625Z,475.03448
2022-10-18T01:09:23.286Z,479.65217
2022-10-18T01:14:24.881Z,489.13274
2022-10-18T01:19:26.476Z,489.13274
2022-10-18T01:24:28.093Z,494
2022-10-18T01:29:29.697Z,504
2022-10-18T01:34:31.295Z,525.13208
2022-10-18T01:39:32.875Z,530.66667
2022-10-18T01:44:34.558Z,530.66667
2022-10-18T01:49:36.237Z,509.13761
2022-10-18T01:54:37.837Z,519.70093
2022-10-18T01:59:39.676Z,514.37037
2022-10-18T02:02:13.508Z,504
2022-10-18T02:07:15.082Z,519.70093
2022-10-18T02:12:16.706Z,519.70093
2022-10-18T02:15:07.234Z,525.13208
2022-10-18T02:20:08.819Z,514.37037
2022-10-18T02:25:10.442Z,509.13761
2022-10-18T02:30:12.073Z,514.37037
2022-10-18T02:35:13.678Z,519.70093
2022-10-18T02:40:15.294Z,509.13761
2022-10-18T02:45:16.851Z,514.37037
2022-10-18T02:50:18.477Z,514.37037
2022-10-18T02:55:20.156Z,530.66667
2022-10-18T03:00:21.824Z,542.05825
2022-10-18T03:05:23.436Z,530.66667
2022-10-18T03:10:25.044Z,536.30769
2022-10-18T03:15:26.634Z,536.30769
2022-10-18T03:20:28.249Z,536.30769
2022-10-18T03:25:29.841Z,525.13208
2022-10-18T03:30:31.548Z,536.30769
2022-10-18T03:35:33.157Z,509.13761
2022-10-18T03:40:34.796Z,525.13208
2022-10-18T03:45:36.445Z,536.30769
2022-10-18T03:50:38.068Z,525.13208
2022-10-18T03:55:39.719Z,536.30769
2022-10-18T04:00:41.342Z,536.30769
2022-10-18T04:05:42.931Z,536.30769
2022-10-18T04:10:44.512Z,519.70093
2022-10-18T04:15:46.099Z,509.13761
2022-10-18T04:20:47.685Z,509.13761
2022-10-18T04:25:49.537Z,519.70093
2022-10-18T04:30:51.236Z,519.70093
2022-10-18T04:35:52.816Z,514.37037
2022-10-18T04:40:54.408Z,530.66667
2022-10-18T04:45:56.016Z,542.05825
2022-10-18T04:50:57.595Z,530.66667
2022-10-18T04:55:59.273Z,519.70093
2022-10-18T05:01:00.860Z,494
2022-10-18T05:06:03.030Z,498.95495
2022-10-18T05:11:05.151Z,509.13761
2022-10-18T05:16:06.807Z,509.13761
2022-10-18T05:21:08.408Z,514.37037
2022-10-18T05:26:10.019Z,525.13208
2022-10-18T05:31:11.634Z,525.13208
2022-10-18T05:36:13.232Z,530.66667
2022-10-18T05:41:14.817Z,525.13208
2022-10-18T05:46:16.406Z,530.66667
2022-10-18T05:51:18.111Z,536.30769
2022-10-18T05:56:19.746Z,536.30769
2022-10-18T06:01:21.333Z,525.13208
2022-10-18T06:06:22.954Z,536.30769
2022-10-18T06:11:24.528Z,542.05825
2022-10-18T06:16:29.834Z,553.90099
2022-10-18T06:21:33.757Z,572.57143
2022-10-18T06:26:35.403Z,572.57143
2022-10-18T06:31:36.976Z,572.57143
2022-10-18T06:36:38.554Z,585.66667
2022-10-18T06:41:40.201Z,585.66667
2022-10-18T06:46:41.812Z,579.05155
2022-10-18T06:51:43.398Z,585.66667
2022-10-18T06:56:45.037Z,592.42105
2022-10-18T07:01:46.689Z,592.42105
2022-10-18T07:06:48.293Z,606.36559
2022-10-18T07:11:49.894Z,606.36559
2022-10-18T07:16:51.559Z,606.36559
2022-10-18T07:21:53.135Z,606.36559
2022-10-18T07:26:55.015Z,613.56522
2022-10-18T07:31:56.609Z,606.36559
2022-10-18T07:36:58.287Z,606.36559
2022-10-18T07:42:00.051Z,613.56522
2022-10-18T07:47:01.789Z,613.56522
2022-10-18T07:52:03.584Z,620.92308
2022-10-18T07:57:05.227Z,620.92308
2022-10-18T08:02:06.967Z,636.13483
2022-10-18T08:07:08.598Z,644
2022-10-18T08:12:10.172Z,636.13483
2022-10-18T08:17:11.790Z,652.04598
2022-10-18T08:22:13.509Z,652.04598
2022-10-18T08:27:15.363Z,636.13483
2022-10-18T08:32:17.287Z,644
2022-10-18T08:37:19.030Z,644
2022-10-18T08:42:20.613Z,644
2022-10-18T08:47:22.363Z,644
2022-10-18T08:52:23.941Z,636.13483
2022-10-18T08:57:25.691Z,636.13483
2022-10-18T09:02:27.416Z,644
2022-10-18T09:07:29.072Z,652.04598
2022-10-18T09:12:30.995Z,660.27907
2022-10-18T09:17:32.736Z,660.27907
2022-10-18T09:22:34.547Z,668.70588
2022-10-18T09:27:36.243Z,668.70588
2022-10-18T09:32:37.850Z,660.27907
2022-10-18T09:37:39.417Z,652.04598
2022-10-18T09:42:41.004Z,652.04598
2022-10-18T09:47:42.630Z,652.04598
2022-10-18T09:52:44.220Z,660.27907
2022-10-18T09:57:45.847Z,660.27907
2022-10-18T10:02:47.522Z,652.04598
2022-10-18T10:07:49.177Z,660.27907
2022-10-18T10:12:50.795Z,677.33333
2022-10-18T10:17:52.383Z,677.33333
2022-10-18T10:22:53.943Z,686.16867
2022-10-18T10:27:55.591Z,686.16867
2022-10-18T10:32:57.263Z,686.16867
2022-10-18T10:37:58.876Z,686.16867
2022-10-18T10:43:12.920Z,695.21951
2022-10-18T10:48:21.384Z,686.16867
2022-10-18T10:53:22.956Z,686.16867
2022-10-18T10:58:24.537Z,695.21951
2022-10-18T11:03:30.037Z,686.16867
2022-10-18T11:08:32.199Z,686.16867
2022-10-18T11:13:33.866Z,677.33333
2022-10-18T11:18:35.468Z,677.33333
2022-10-18T11:23:37.104Z,668.70588
2022-10-18T11:28:38.797Z,677.33333
2022-10-18T11:34:07.013Z,677.33333
2022-10-18T11:39:09.768Z,677.33333
2022-10-18T11:44:11.357Z,686.16867
2022-10-18T11:49:13.006Z,677.33333
2022-10-18T11:54:14.621Z,677.33333
2022-10-18T11:59:16.255Z,686.16867
2022-10-18T12:04:17.863Z,695.21951
2022-10-18T12:09:19.494Z,686.16867
2022-10-18T12:14:21.077Z,686.16867
2022-10-18T12:19:26.220Z,695.21951
2022-10-18T12:24:28.859Z,695.21951
2022-10-18T12:29:30.572Z,704.49383
2022-10-18T12:34:32.219Z,668.70588
2022-10-18T12:39:43.415Z,660.27907
2022-10-18T12:44:52.213Z,677.33333
2022-10-18T12:49:53.922Z,668.70588
2022-10-18T12:54:56.443Z,677.33333
2022-10-18T12:59:58.201Z,686.16867
2022-10-18T13:10:01.356Z,686.16867
2022-10-18T13:15:12.588Z,686.16867
2022-10-18T13:20:26.107Z,686.16867
2022-10-18T13:25:28.633Z,695.21951
2022-10-18T13:30:30.213Z,686.16867
2022-10-18T13:35:31.838Z,620.92308
2022-10-18T13:40:33.478Z,644
2022-10-18T13:45:35.087Z,652.04598
2022-10-18T13:50:36.805Z,668.70588
2022-10-18T13:55:38.438Z,668.70588
2022-10-18T14:00:44.893Z,668.70588
2022-10-18T14:05:50.820Z,652.04598
2022-10-18T14:11:02.054Z,652.04598
2022-10-18T14:16:04.679Z,652.04598
2022-10-18T14:21:13.677Z,677.33333
2022-10-18T14:26:17.036Z,695.21951
2022-10-18T14:31:18.649Z,686.16867
2022-10-18T14:36:20.278Z,686.16867
2022-10-18T14:41:21.933Z,704.49383
2022-10-18T14:46:23.502Z,723.74684
2022-10-18T14:51:25.118Z,714
2022-10-18T14:56:26.754Z,704.49383
2022-10-18T15:01:28.482Z,714
2022-10-18T15:06:30.131Z,704.49383
2022-10-18T15:11:31.775Z,686.16867
2022-10-18T15:16:33.418Z,677.33333
2022-10-18T15:21:35.045Z,677.33333
2022-10-18T15:26:36.667Z,660.27907
2022-10-18T15:31:38.541Z,652.04598
2022-10-18T15:36:40.176Z,652.04598
2022-10-18T15:41:41.830Z,668.70588
2022-10-18T15:46:43.450Z,677.33333
2022-10-18T15:51:45.033Z,660.27907
2022-10-18T15:56:46.618Z,668.70588
2022-10-18T16:01:48.301Z,677.33333
2022-10-18T16:06:49.908Z,660.27907
2022-10-18T16:11:56.615Z,668.70588
2022-10-18T16:17:02.165Z,652.04598
2022-10-18T16:22:06.901Z,652.04598
2022-10-18T16:27:08.761Z,652.04598
2022-10-18T16:32:10.370Z,644
2022-10-18T16:37:11.992Z,660.27907
2022-10-18T16:42:13.695Z,652.04598
2022-10-18T16:47:15.299Z,644
2022-10-18T16:52:16.951Z,668.70588
2022-10-18T16:57:18.599Z,668.70588
2022-10-18T17:02:20.220Z,686.16867
2022-10-18T17:12:23.487Z,660.27907
2022-10-18T17:17:25.094Z,652.04598
2022-10-18T17:22:26.711Z,677.33333
2022-10-18T17:27:28.376Z,668.70588
2022-10-18T17:32:30.001Z,668.70588
2022-10-18T17:37:31.876Z,677.33333
2022-10-18T17:42:33.837Z,668.70588
2022-10-18T17:47:35.729Z,686.16867
2022-10-18T17:52:37.426Z,660.27907
2022-10-18T17:57:39.030Z,660.27907
2022-10-18T18:02:41.960Z,677.33333
2022-10-18T18:07:44.008Z,668.70588
2022-10-18T18:12:45.625Z,668.70588
2022-10-18T18:17:56.852Z,644
2022-10-18T18:22:59.245Z,668.70588
2022-10-18T18:28:05.206Z,668.70588
2022-10-18T18:33:09.155Z,695.21951
2022-10-18T18:38:10.765Z,704.49383
2022-10-18T18:48:20.948Z,824
2022-10-18T18:53:25.994Z,787.83562
2022-10-18T18:58:31.217Z,744
2022-10-18T19:03:32.852Z,723.74684
2022-10-18T19:08:34.455Z,677.33333
2022-10-18T19:13:36.079Z,592.42105
2022-10-18T19:18:37.670Z,585.66667
2022-10-18T19:23:39.263Z,585.66667
2022-10-18T19:28:40.925Z,592.42105
2022-10-18T19:33:55.574Z,579.05155
2022-10-18T19:39:00.779Z,566.22222
2022-10-18T19:44:02.455Z,566.22222
2022-10-18T19:49:04.113Z,566.22222
2022-10-18T19:54:05.768Z,585.66667
2022-10-18T19:59:07.343Z,572.57143
2022-10-18T20:04:08.998Z,560
2022-10-18T20:09:12.402Z,547.92157
2022-10-18T20:14:16.482Z,579.05155
2022-10-18T20:19:18.075Z,599.31915
2022-10-18T20:24:19.684Z,599.31915
2022-10-18T20:29:21.282Z,628.44444
2022-10-18T20:34:22.924Z,636.13483
2022-10-18T20:39:24.495Z,636.13483
2022-10-18T20:44:26.122Z,599.31915
2022-10-18T20:49:27.712Z,579.05155
2022-10-18T20:54:29.316Z,560
2022-10-18T20:59:30.909Z,560
2022-10-18T21:04:32.538Z,553.90099
2022-10-18T21:09:34.151Z,547.92157
2022-10-18T21:14:35.766Z,542.05825
2022-10-18T21:19:37.369Z,560
2022-10-18T21:24:38.997Z,560
2022-10-18T21:29:40.575Z,560
2022-10-18T21:34:42.214Z,585.66667
2022-10-18T21:39:43.840Z,579.05155
2022-10-18T21:44:45.484Z,579.05155
2022-10-18T21:49:47.127Z,542.05825
2022-10-18T21:54:48.935Z,536.30769
2022-10-18T21:59:50.534Z,530.66667
2022-10-18T22:04:52.130Z,536.30769
2022-10-18T22:09:53.795Z,530.66667
2022-10-18T22:14:55.416Z,542.05825
2022-10-18T22:19:57.041Z,547.92157
2022-10-18T22:24:58.661Z,519.70093
2022-10-18T22:30:00.280Z,504
2022-10-18T22:35:01.921Z,509.13761
2022-10-18T22:40:03.489Z,525.13208
2022-10-18T22:45:05.204Z,542.05825
2022-10-18T22:50:06.836Z,560
2022-10-18T22:55:08.425Z,572.57143
2022-10-18T23:00:10.023Z,553.90099
2022-10-18T23:05:11.672Z,519.70093
2022-10-18T23:10:13.253Z,475.03448
2022-10-18T23:15:14.867Z,457.33333
2022-10-18T23:20:16.496Z,475.03448
2022-10-18T23:25:18.141Z,470.49573
2022-10-18T23:30:19.704Z,489.13274
2022-10-18T23:35:21.297Z,470.49573
2022-10-18T23:40:22.902Z,448.91803
2022-10-18T23:45:24.605Z,453.09091
2022-10-18T23:50:26.211Z,448.91803
2022-10-18T23:55:27.993Z,448.91803
